sensor_id;sensor_type;location;lat;lon;timestamp;pressure;altitude;pressure_sealevel;temperature;humidity
66762;BME280;53672;48.176;16.338;2023-02-23T00:03:29;98921.69;;;6.28;92.99
66762;BME280;53672;48.176;16.338;2023-02-23T00:08:31;98920.41;;;6.36;92.86
66762;BME280;53672;48.176;16.338;2023-02-23T00:13:32;98916.38;;;6.33;92.77
66762;BME280;53672;48.176;16.338;2023-02-23T00:18:33;98918.19;;;6.28;93.18
66762;BME280;53672;48.176;16.338;2023-02-23T00:23:35;98913.63;;;6.23;93.09
66762;BME280;53672;48.176;16.338;2023-02-23T00:28:36;98919.81;;;6.29;93.22
66762;BME280;53672;48.176;16.338;2023-02-23T00:33:37;98917.31;;;6.17;93.27
66762;BME280;53672;48.176;16.338;2023-02-23T00:38:39;98912.47;;;6.14;93.40
66762;BME280;53672;48.176;16.338;2023-02-23T00:43:41;98915.31;;;5.97;94.03
66762;BME280;53672;48.176;16.338;2023-02-23T00:48:41;98913.16;;;5.94;94.07
66762;BME280;53672;48.176;16.338;2023-02-23T00:53:44;98907.19;;;5.87;94.89
66762;BME280;53672;48.176;16.338;2023-02-23T00:58:44;98915.13;;;5.82;95.68
66762;BME280;53672;48.176;16.338;2023-02-23T01:03:45;98907.69;;;5.84;95.03
66762;BME280;53672;48.176;16.338;2023-02-23T01:08:49;98901.88;;;5.66;95.28
66762;BME280;53672;48.176;16.338;2023-02-23T01:13:51;98908.25;;;5.59;96.53
66762;BME280;53672;48.176;16.338;2023-02-23T01:18:53;98905.50;;;5.49;97.46
66762;BME280;53672;48.176;16.338;2023-02-23T01:23:55;98900.97;;;5.50;96.81
66762;BME280;53672;48.176;16.338;2023-02-23T01:28:58;98904.03;;;5.37;98.33
66762;BME280;53672;48.176;16.338;2023-02-23T01:34:01;98892.75;;;5.30;98.43
66762;BME280;53672;48.176;16.338;2023-02-23T01:39:04;98893.28;;;5.32;98.78
66762;BME280;53672;48.176;16.338;2023-02-23T01:44:57;98891.19;;;5.34;98.32
66762;BME280;53672;48.176;16.338;2023-02-23T01:49:29;98883.72;;;5.36;97.95
66762;BME280;53672;48.176;16.338;2023-02-23T01:54:36;98882.56;;;5.27;98.43
66762;BME280;53672;48.176;16.338;2023-02-23T01:59:40;98880.44;;;5.29;98.74
66762;BME280;53672;48.176;16.338;2023-02-23T02:04:42;98885.06;;;5.38;98.92
66762;BME280;53672;48.176;16.338;2023-02-23T02:09:46;98887.84;;;5.48;99.49
66762;BME280;53672;48.176;16.338;2023-02-23T02:14:47;98883.88;;;5.51;98.49
66762;BME280;53672;48.176;16.338;2023-02-23T02:20:14;98880.63;;;5.49;97.34
66762;BME280;53672;48.176;16.338;2023-02-23T02:30:57;98874.75;;;5.47;97.08
66762;BME280;53672;48.176;16.338;2023-02-23T02:41:56;98888.41;;;5.50;97.35
66762;BME280;53672;48.176;16.338;2023-02-23T02:47:05;98878.00;;;5.54;97.95
66762;BME280;53672;48.176;16.338;2023-02-23T02:52:12;98878.31;;;5.57;97.70
66762;BME280;53672;48.176;16.338;2023-02-23T02:57:17;98878.31;;;5.57;97.68
66762;BME280;53672;48.176;16.338;2023-02-23T03:02:21;98886.56;;;5.56;97.71
66762;BME280;53672;48.176;16.338;2023-02-23T03:07:25;98882.59;;;5.58;97.96
66762;BME280;53672;48.176;16.338;2023-02-23T03:12:38;98882.03;;;5.56;97.23
66762;BME280;53672;48.176;16.338;2023-02-23T03:17:44;98885.75;;;5.55;97.05
66762;BME280;53672;48.176;16.338;2023-02-23T03:22:51;98886.84;;;5.54;97.11
66762;BME280;53672;48.176;16.338;2023-02-23T03:27:57;98889.53;;;5.59;97.32
66762;BME280;53672;48.176;16.338;2023-02-23T03:33:06;98893.03;;;5.60;97.26
66762;BME280;53672;48.176;16.338;2023-02-23T03:38:15;98900.25;;;5.59;97.13
66762;BME280;53672;48.176;16.338;2023-02-23T03:43:22;98898.06;;;5.56;97.43
66762;BME280;53672;48.176;16.338;2023-02-23T03:48:25;98899.91;;;5.51;97.35
66762;BME280;53672;48.176;16.338;2023-02-23T03:53:30;98903.56;;;5.45;97.53
66762;BME280;53672;48.176;16.338;2023-02-23T03:58:37;98905.63;;;5.38;97.43
66762;BME280;53672;48.176;16.338;2023-02-23T04:03:41;98908.06;;;5.39;97.36
66762;BME280;53672;48.176;16.338;2023-02-23T04:08:44;98912.19;;;5.52;95.95
66762;BME280;53672;48.176;16.338;2023-02-23T04:13:51;98909.47;;;5.47;96.27
66762;BME280;53672;48.176;16.338;2023-02-23T04:18:53;98906.53;;;5.48;96.07
66762;BME280;53672;48.176;16.338;2023-02-23T04:23:54;98915.03;;;5.40;96.11
66762;BME280;53672;48.176;16.338;2023-02-23T04:28:56;98912.09;;;5.42;96.95
66762;BME280;53672;48.176;16.338;2023-02-23T04:33:57;98914.81;;;5.47;96.45
66762;BME280;53672;48.176;16.338;2023-02-23T04:38:57;98916.94;;;5.45;96.12
66762;BME280;53672;48.176;16.338;2023-02-23T04:43:59;98913.47;;;5.44;96.50
66762;BME280;53672;48.176;16.338;2023-02-23T04:48:59;98912.66;;;5.44;96.64
66762;BME280;53672;48.176;16.338;2023-02-23T04:54:00;98913.41;;;5.39;96.65
66762;BME280;53672;48.176;16.338;2023-02-23T04:59:02;98914.63;;;5.27;97.87
66762;BME280;53672;48.176;16.338;2023-02-23T05:04:02;98916.22;;;5.28;97.53
66762;BME280;53672;48.176;16.338;2023-02-23T05:09:03;98913.81;;;5.26;98.09
66762;BME280;53672;48.176;16.338;2023-02-23T05:14:05;98909.63;;;5.35;98.33
66762;BME280;53672;48.176;16.338;2023-02-23T05:19:06;98910.88;;;5.28;98.10
66762;BME280;53672;48.176;16.338;2023-02-23T05:24:07;98914.63;;;5.27;98.63
66762;BME280;53672;48.176;16.338;2023-02-23T05:29:09;98912.91;;;5.16;99.50
66762;BME280;53672;48.176;16.338;2023-02-23T05:34:10;98919.75;;;5.06;99.78
66762;BME280;53672;48.176;16.338;2023-02-23T05:39:10;98918.13;;;5.05;99.77
66762;BME280;53672;48.176;16.338;2023-02-23T05:44:12;98916.06;;;5.13;99.69
66762;BME280;53672;48.176;16.338;2023-02-23T05:49:13;98925.19;;;5.17;99.92
66762;BME280;53672;48.176;16.338;2023-02-23T05:54:13;98929.53;;;5.23;100.00
66762;BME280;53672;48.176;16.338;2023-02-23T05:59:15;98937.41;;;5.34;99.10
66762;BME280;53672;48.176;16.338;2023-02-23T06:04:16;98933.75;;;5.40;97.68
66762;BME280;53672;48.176;16.338;2023-02-23T06:09:16;98950.31;;;5.42;97.26
66762;BME280;53672;48.176;16.338;2023-02-23T06:14:18;98959.28;;;5.31;97.35
66762;BME280;53672;48.176;16.338;2023-02-23T06:19:19;98958.06;;;5.17;98.54
66762;BME280;53672;48.176;16.338;2023-02-23T06:24:19;98961.97;;;5.09;99.40
66762;BME280;53672;48.176;16.338;2023-02-23T06:29:21;98969.59;;;5.23;98.54
66762;BME280;53672;48.176;16.338;2023-02-23T06:34:22;98974.81;;;5.34;97.12
66762;BME280;53672;48.176;16.338;2023-02-23T06:39:22;98973.41;;;5.27;97.85
66762;BME280;53672;48.176;16.338;2023-02-23T06:44:24;98977.78;;;5.38;96.72
66762;BME280;53672;48.176;16.338;2023-02-23T06:49:25;98979.28;;;5.50;96.08
66762;BME280;53672;48.176;16.338;2023-02-23T06:54:25;98982.00;;;5.55;95.94
66762;BME280;53672;48.176;16.338;2023-02-23T06:59:27;98990.16;;;5.44;95.77
66762;BME280;53672;48.176;16.338;2023-02-23T07:04:28;98988.72;;;5.58;94.31
66762;BME280;53672;48.176;16.338;2023-02-23T07:09:28;98994.22;;;5.73;94.08
66762;BME280;53672;48.176;16.338;2023-02-23T07:14:30;98989.47;;;5.80;93.30
66762;BME280;53672;48.176;16.338;2023-02-23T07:19:31;98992.66;;;5.77;93.47
66762;BME280;53672;48.176;16.338;2023-02-23T07:24:32;98993.13;;;5.96;92.73
66762;BME280;53672;48.176;16.338;2023-02-23T07:29:34;99001.66;;;6.20;91.88
66762;BME280;53672;48.176;16.338;2023-02-23T07:34:34;98991.44;;;6.17;92.41
66762;BME280;53672;48.176;16.338;2023-02-23T07:39:35;99001.75;;;6.35;91.81
66762;BME280;53672;48.176;16.338;2023-02-23T07:44:37;98998.53;;;6.70;90.12
66762;BME280;53672;48.176;16.338;2023-02-23T07:49:38;99001.75;;;6.72;90.90
66762;BME280;53672;48.176;16.338;2023-02-23T07:54:38;99001.94;;;7.02;88.92
66762;BME280;53672;48.176;16.338;2023-02-23T07:59:40;99008.28;;;7.43;87.16
66762;BME280;53672;48.176;16.338;2023-02-23T08:04:40;99004.28;;;7.60;86.11
66762;BME280;53672;48.176;16.338;2023-02-23T08:09:41;99007.38;;;8.25;82.60
66762;BME280;53672;48.176;16.338;2023-02-23T08:14:43;99013.06;;;8.38;81.22
66762;BME280;53672;48.176;16.338;2023-02-23T08:19:44;99021.59;;;8.86;78.48
66762;BME280;53672;48.176;16.338;2023-02-23T08:24:44;99014.34;;;8.81;78.04
66762;BME280;53672;48.176;16.338;2023-02-23T08:29:46;99018.13;;;8.60;78.15
66762;BME280;53672;48.176;16.338;2023-02-23T08:34:47;99020.44;;;9.76;73.98
66762;BME280;53672;48.176;16.338;2023-02-23T08:39:47;99028.78;;;10.29;72.42
66762;BME280;53672;48.176;16.338;2023-02-23T08:44:49;99024.53;;;10.23;70.57
66762;BME280;53672;48.176;16.338;2023-02-23T08:49:50;99020.03;;;10.47;69.57
66762;BME280;53672;48.176;16.338;2023-02-23T08:54:50;99019.16;;;11.56;64.83
66762;BME280;53672;48.176;16.338;2023-02-23T08:59:52;99028.69;;;11.25;66.51
66762;BME280;53672;48.176;16.338;2023-02-23T09:04:53;99026.53;;;11.69;62.80
66762;BME280;53672;48.176;16.338;2023-02-23T09:09:53;99024.94;;;11.45;64.29
66762;BME280;53672;48.176;16.338;2023-02-23T09:14:56;99030.38;;;12.06;62.78
66762;BME280;53672;48.176;16.338;2023-02-23T09:19:57;99028.78;;;11.86;62.44
66762;BME280;53672;48.176;16.338;2023-02-23T09:24:57;99034.97;;;11.87;62.75
66762;BME280;53672;48.176;16.338;2023-02-23T09:29:59;99039.63;;;12.56;59.91
66762;BME280;53672;48.176;16.338;2023-02-23T09:34:59;99035.41;;;13.28;58.25
66762;BME280;53672;48.176;16.338;2023-02-23T09:40:00;99027.59;;;14.03;55.08
66762;BME280;53672;48.176;16.338;2023-02-23T09:45:11;99030.44;;;15.09;51.71
66762;BME280;53672;48.176;16.338;2023-02-23T09:50:20;99029.88;;;13.47;55.19
66762;BME280;53672;48.176;16.338;2023-02-23T09:55:22;99026.34;;;15.60;49.94
66762;BME280;53672;48.176;16.338;2023-02-23T10:00:25;99033.03;;;14.61;52.04
66762;BME280;53672;48.176;16.338;2023-02-23T10:05:27;99032.84;;;14.58;54.11
66762;BME280;53672;48.176;16.338;2023-02-23T10:10:36;99035.81;;;17.46;44.74
66762;BME280;53672;48.176;16.338;2023-02-23T10:15:43;99032.28;;;16.99;46.45
66762;BME280;53672;48.176;16.338;2023-02-23T10:20:51;99017.66;;;18.30;42.94
66762;BME280;53672;48.176;16.338;2023-02-23T10:25:55;99022.72;;;17.69;44.73
66762;BME280;53672;48.176;16.338;2023-02-23T10:30:59;99020.59;;;18.66;42.19
66762;BME280;53672;48.176;16.338;2023-02-23T10:36:09;99020.09;;;18.64;40.54
66762;BME280;53672;48.176;16.338;2023-02-23T10:41:11;99019.22;;;22.07;35.51
66762;BME280;53672;48.176;16.338;2023-02-23T10:46:19;99018.28;;;20.22;37.65
66762;BME280;53672;48.176;16.338;2023-02-23T10:51:23;99006.16;;;21.69;35.54
66762;BME280;53672;48.176;16.338;2023-02-23T10:56:26;98988.00;;;20.03;37.87
66762;BME280;53672;48.176;16.338;2023-02-23T11:01:33;98988.03;;;16.30;45.97
66762;BME280;53672;48.176;16.338;2023-02-23T11:06:36;98984.59;;;14.77;52.81
66762;BME280;53672;48.176;16.338;2023-02-23T11:11:37;98983.84;;;15.64;50.42
66762;BME280;53672;48.176;16.338;2023-02-23T11:16:38;98974.94;;;15.98;49.91
66762;BME280;53672;48.176;16.338;2023-02-23T11:21:39;98971.09;;;17.05;46.41
66762;BME280;53672;48.176;16.338;2023-02-23T11:26:41;98963.69;;;17.44;45.02
66762;BME280;53672;48.176;16.338;2023-02-23T11:31:48;98962.56;;;19.50;40.24
66762;BME280;53672;48.176;16.338;2023-02-23T11:37:03;98955.03;;;16.66;45.81
66762;BME280;53672;48.176;16.338;2023-02-23T11:42:13;98947.03;;;15.41;50.87
66762;BME280;53672;48.176;16.338;2023-02-23T11:47:17;98943.53;;;17.07;46.24
66762;BME280;53672;48.176;16.338;2023-02-23T11:52:20;98942.44;;;16.18;49.08
66762;BME280;53672;48.176;16.338;2023-02-23T11:57:23;98938.34;;;16.76;48.22
66762;BME280;53672;48.176;16.338;2023-02-23T12:02:27;98926.47;;;17.56;45.64
66762;BME280;53672;48.176;16.338;2023-02-23T12:07:33;98920.47;;;16.49;48.47
66762;BME280;53672;48.176;16.338;2023-02-23T12:12:45;98927.25;;;15.57;50.70
66762;BME280;53672;48.176;16.338;2023-02-23T12:17:49;98926.22;;;16.73;48.07
66762;BME280;53672;48.176;16.338;2023-02-23T12:22:54;98922.56;;;15.41;51.90
66762;BME280;53672;48.176;16.338;2023-02-23T12:28:01;98916.00;;;13.65;57.06
66762;BME280;53672;48.176;16.338;2023-02-23T12:33:09;98916.97;;;13.34;58.11
66762;BME280;53672;48.176;16.338;2023-02-23T12:38:16;98907.00;;;15.15;53.42
66762;BME280;53672;48.176;16.338;2023-02-23T12:43:24;98902.81;;;15.92;51.44
66762;BME280;53672;48.176;16.338;2023-02-23T12:48:34;98886.50;;;15.49;52.00
66762;BME280;53672;48.176;16.338;2023-02-23T12:53:39;98876.91;;;14.47;55.42
66762;BME280;53672;48.176;16.338;2023-02-23T12:58:46;98875.19;;;15.07;53.04
66762;BME280;53672;48.176;16.338;2023-02-23T13:09:35;98868.25;;;14.14;55.20
66762;BME280;53672;48.176;16.338;2023-02-23T13:14:44;98873.53;;;14.19;55.17
66762;BME280;53672;48.176;16.338;2023-02-23T13:19:51;98862.75;;;14.28;54.89
66762;BME280;53672;48.176;16.338;2023-02-23T13:24:56;98871.28;;;12.91;58.64
66762;BME280;53672;48.176;16.338;2023-02-23T13:29:57;98860.16;;;13.20;57.97
66762;BME280;53672;48.176;16.338;2023-02-23T13:35:00;98861.97;;;13.60;57.32
66762;BME280;53672;48.176;16.338;2023-02-23T13:40:13;98855.13;;;13.27;58.44
66762;BME280;53672;48.176;16.338;2023-02-23T13:45:46;98866.16;;;13.31;58.80
66762;BME280;53672;48.176;16.338;2023-02-23T13:50:56;98862.47;;;13.27;58.93
66762;BME280;53672;48.176;16.338;2023-02-23T13:55:59;98865.50;;;12.98;60.31
66762;BME280;53672;48.176;16.338;2023-02-23T14:01:05;98855.56;;;13.07;60.22
66762;BME280;53672;48.176;16.338;2023-02-23T14:06:12;98855.22;;;13.36;59.08
66762;BME280;53672;48.176;16.338;2023-02-23T14:11:27;98846.34;;;13.22;59.71
66762;BME280;53672;48.176;16.338;2023-02-23T14:16:29;98845.16;;;13.72;58.20
66762;BME280;53672;48.176;16.338;2023-02-23T14:21:34;98844.06;;;13.95;57.04
66762;BME280;53672;48.176;16.338;2023-02-23T14:26:45;98837.81;;;13.95;57.15
66762;BME280;53672;48.176;16.338;2023-02-23T14:32:26;98838.09;;;14.15;56.30
66762;BME280;53672;48.176;16.338;2023-02-23T14:37:33;98838.81;;;13.54;58.06
66762;BME280;53672;48.176;16.338;2023-02-23T14:42:37;98830.41;;;13.56;57.89
66762;BME280;53672;48.176;16.338;2023-02-23T14:47:44;98832.16;;;13.60;57.88
66762;BME280;53672;48.176;16.338;2023-02-23T14:52:47;98821.72;;;13.67;58.06
66762;BME280;53672;48.176;16.338;2023-02-23T14:57:50;98828.66;;;13.38;59.10
66762;BME280;53672;48.176;16.338;2023-02-23T15:02:57;98832.44;;;13.14;59.33
66762;BME280;53672;48.176;16.338;2023-02-23T15:08:01;98825.66;;;13.26;58.95
66762;BME280;53672;48.176;16.338;2023-02-23T15:13:08;98821.28;;;13.02;59.90
66762;BME280;53672;48.176;16.338;2023-02-23T15:23:50;98812.00;;;12.67;61.66
66762;BME280;53672;48.176;16.338;2023-02-23T15:28:51;98809.09;;;12.64;62.06
66762;BME280;53672;48.176;16.338;2023-02-23T15:33:52;98806.00;;;12.57;62.93
66762;BME280;53672;48.176;16.338;2023-02-23T15:38:56;98804.72;;;12.41;63.33
66762;BME280;53672;48.176;16.338;2023-02-23T15:44:04;98798.81;;;12.25;63.86
66762;BME280;53672;48.176;16.338;2023-02-23T15:49:09;98796.91;;;12.26;63.99
66762;BME280;53672;48.176;16.338;2023-02-23T15:54:17;98790.38;;;12.27;64.44
66762;BME280;53672;48.176;16.338;2023-02-23T15:59:20;98802.72;;;12.19;64.72
66762;BME280;53672;48.176;16.338;2023-02-23T16:04:26;98802.97;;;12.04;65.15
66762;BME280;53672;48.176;16.338;2023-02-23T16:09:29;98800.56;;;12.02;65.38
66762;BME280;53672;48.176;16.338;2023-02-23T16:14:33;98795.47;;;12.01;65.31
66762;BME280;53672;48.176;16.338;2023-02-23T16:19:34;98796.63;;;11.81;65.95
66762;BME280;53672;48.176;16.338;2023-02-23T16:24:36;98798.63;;;11.89;66.10
66762;BME280;53672;48.176;16.338;2023-02-23T16:29:38;98796.69;;;11.76;66.61
66762;BME280;53672;48.176;16.338;2023-02-23T16:34:47;98793.56;;;11.69;66.83
66762;BME280;53672;48.176;16.338;2023-02-23T16:39:50;98797.72;;;11.61;66.22
66762;BME280;53672;48.176;16.338;2023-02-23T16:44:51;98799.00;;;11.50;66.63
66762;BME280;53672;48.176;16.338;2023-02-23T16:49:51;98791.28;;;11.44;66.75
66762;BME280;53672;48.176;16.338;2023-02-23T16:54:53;98789.25;;;11.36;67.48
66762;BME280;53672;48.176;16.338;2023-02-23T16:59:54;98795.50;;;11.31;68.05
66762;BME280;53672;48.176;16.338;2023-02-23T17:04:55;98804.13;;;11.14;67.41
66762;BME280;53672;48.176;16.338;2023-02-23T17:09:57;98803.09;;;11.10;67.64
66762;BME280;53672;48.176;16.338;2023-02-23T17:14:58;98797.63;;;10.97;67.17
66762;BME280;53672;48.176;16.338;2023-02-23T17:19:59;98804.19;;;10.91;66.13
66762;BME280;53672;48.176;16.338;2023-02-23T17:25:01;98802.72;;;10.80;66.25
66762;BME280;53672;48.176;16.338;2023-02-23T17:30:03;98801.91;;;10.79;66.16
66762;BME280;53672;48.176;16.338;2023-02-23T17:35:05;98797.22;;;10.66;66.32
66762;BME280;53672;48.176;16.338;2023-02-23T17:40:09;98802.75;;;10.56;66.70
66762;BME280;53672;48.176;16.338;2023-02-23T17:45:10;98798.44;;;10.55;66.92
66762;BME280;53672;48.176;16.338;2023-02-23T17:50:11;98793.25;;;10.40;67.72
66762;BME280;53672;48.176;16.338;2023-02-23T17:55:14;98794.03;;;10.40;67.42
66762;BME280;53672;48.176;16.338;2023-02-23T18:00:18;98799.47;;;10.35;67.38
66762;BME280;53672;48.176;16.338;2023-02-23T18:05:20;98796.56;;;10.32;67.73
66762;BME280;53672;48.176;16.338;2023-02-23T18:10:22;98786.31;;;10.34;67.49
66762;BME280;53672;48.176;16.338;2023-02-23T18:15:23;98793.00;;;10.36;67.42
66762;BME280;53672;48.176;16.338;2023-02-23T18:20:24;98795.31;;;10.48;66.50
66762;BME280;53672;48.176;16.338;2023-02-23T18:25:30;98797.00;;;10.39;66.95
66762;BME280;53672;48.176;16.338;2023-02-23T18:30:31;98794.91;;;10.36;66.76
66762;BME280;53672;48.176;16.338;2023-02-23T18:35:34;98791.69;;;10.34;66.80
66762;BME280;53672;48.176;16.338;2023-02-23T18:40:39;98786.34;;;10.29;67.06
66762;BME280;53672;48.176;16.338;2023-02-23T18:45:40;98792.16;;;10.12;67.17
66762;BME280;53672;48.176;16.338;2023-02-23T18:50:41;98784.63;;;10.14;67.49
66762;BME280;53672;48.176;16.338;2023-02-23T18:55:45;98790.03;;;10.09;67.70
66762;BME280;53672;48.176;16.338;2023-02-23T19:00:46;98779.31;;;10.04;67.70
66762;BME280;53672;48.176;16.338;2023-02-23T19:05:47;98774.03;;;9.94;68.48
66762;BME280;53672;48.176;16.338;2023-02-23T19:10:51;98782.97;;;9.89;68.54
66762;BME280;53672;48.176;16.338;2023-02-23T19:15:53;98777.53;;;9.94;67.97
66762;BME280;53672;48.176;16.338;2023-02-23T19:20:54;98783.75;;;9.90;67.67
66762;BME280;53672;48.176;16.338;2023-02-23T19:25:57;98784.81;;;9.94;67.59
66762;BME280;53672;48.176;16.338;2023-02-23T19:31:02;98785.38;;;9.91;67.32
66762;BME280;53672;48.176;16.338;2023-02-23T19:36:05;98792.16;;;9.83;67.58
66762;BME280;53672;48.176;16.338;2023-02-23T19:41:10;98786.78;;;9.83;67.54
66762;BME280;53672;48.176;16.338;2023-02-23T19:46:12;98784.06;;;9.88;67.51
66762;BME280;53672;48.176;16.338;2023-02-23T19:51:15;98776.34;;;9.77;67.98
66762;BME280;53672;48.176;16.338;2023-02-23T19:56:18;98782.31;;;9.74;68.15
66762;BME280;53672;48.176;16.338;2023-02-23T20:01:21;98775.00;;;9.79;68.21
66762;BME280;53672;48.176;16.338;2023-02-23T20:06:24;98773.50;;;9.68;68.57
66762;BME280;53672;48.176;16.338;2023-02-23T20:11:28;98774.63;;;9.62;68.79
66762;BME280;53672;48.176;16.338;2023-02-23T20:16:30;98771.50;;;9.50;69.58
66762;BME280;53672;48.176;16.338;2023-02-23T20:21:31;98761.72;;;9.59;68.99
66762;BME280;53672;48.176;16.338;2023-02-23T20:26:34;98766.00;;;9.65;68.67
66762;BME280;53672;48.176;16.338;2023-02-23T20:31:37;98758.28;;;9.53;69.40
66762;BME280;53672;48.176;16.338;2023-02-23T20:36:38;98764.56;;;9.44;70.34
66762;BME280;53672;48.176;16.338;2023-02-23T20:41:40;98758.19;;;9.35;70.54
66762;BME280;53672;48.176;16.338;2023-02-23T20:46:42;98751.84;;;9.49;69.71
66762;BME280;53672;48.176;16.338;2023-02-23T20:51:45;98748.41;;;9.44;70.13
66762;BME280;53672;48.176;16.338;2023-02-23T20:56:48;98743.63;;;9.36;70.38
66762;BME280;53672;48.176;16.338;2023-02-23T21:01:49;98736.13;;;9.33;70.94
66762;BME280;53672;48.176;16.338;2023-02-23T21:06:50;98727.81;;;9.29;71.25
66762;BME280;53672;48.176;16.338;2023-02-23T21:11:55;98722.13;;;9.36;71.44
66762;BME280;53672;48.176;16.338;2023-02-23T21:16:56;98726.41;;;9.37;71.44
66762;BME280;53672;48.176;16.338;2023-02-23T21:21:58;98717.06;;;9.29;71.30
66762;BME280;53672;48.176;16.338;2023-02-23T21:27:01;98714.94;;;9.26;72.55
66762;BME280;53672;48.176;16.338;2023-02-23T21:32:02;98709.00;;;9.29;72.00
66762;BME280;53672;48.176;16.338;2023-02-23T21:37:03;98710.94;;;9.24;72.06
66762;BME280;53672;48.176;16.338;2023-02-23T21:42:05;98708.75;;;9.26;72.04
66762;BME280;53672;48.176;16.338;2023-02-23T21:47:06;98706.97;;;9.16;72.46
66762;BME280;53672;48.176;16.338;2023-02-23T21:52:07;98712.31;;;9.21;72.44
66762;BME280;53672;48.176;16.338;2023-02-23T21:57:09;98710.47;;;9.11;73.00
66762;BME280;53672;48.176;16.338;2023-02-23T22:02:10;98708.84;;;9.15;72.18
66762;BME280;53672;48.176;16.338;2023-02-23T22:07:10;98702.41;;;9.11;72.43
66762;BME280;53672;48.176;16.338;2023-02-23T22:12:12;98701.94;;;9.04;72.77
66762;BME280;53672;48.176;16.338;2023-02-23T22:17:13;98688.50;;;9.04;72.75
66762;BME280;53672;48.176;16.338;2023-02-23T22:22:13;98688.16;;;9.11;72.22
66762;BME280;53672;48.176;16.338;2023-02-23T22:27:15;98683.16;;;8.99;72.48
66762;BME280;53672;48.176;16.338;2023-02-23T22:32:16;98686.91;;;9.03;72.22
66762;BME280;53672;48.176;16.338;2023-02-23T22:37:16;98685.03;;;9.04;72.18
66762;BME280;53672;48.176;16.338;2023-02-23T22:42:18;98683.16;;;8.99;72.55
66762;BME280;53672;48.176;16.338;2023-02-23T22:47:19;98683.97;;;9.00;72.74
66762;BME280;53672;48.176;16.338;2023-02-23T22:52:19;98676.75;;;8.95;72.60
66762;BME280;53672;48.176;16.338;2023-02-23T22:57:21;98664.88;;;9.01;72.28
66762;BME280;53672;48.176;16.338;2023-02-23T23:02:22;98668.41;;;8.97;71.84
66762;BME280;53672;48.176;16.338;2023-02-23T23:07:22;98665.97;;;9.00;71.94
66762;BME280;53672;48.176;16.338;2023-02-23T23:12:25;98660.06;;;8.98;72.01
66762;BME280;53672;48.176;16.338;2023-02-23T23:17:26;98664.88;;;9.01;71.83
66762;BME280;53672;48.176;16.338;2023-02-23T23:22:26;98660.78;;;9.09;71.70
66762;BME280;53672;48.176;16.338;2023-02-23T23:27:28;98658.91;;;9.04;71.70
66762;BME280;53672;48.176;16.338;2023-02-23T23:32:29;98654.66;;;9.03;71.97
66762;BME280;53672;48.176;16.338;2023-02-23T23:37:29;98659.00;;;8.94;72.28
66762;BME280;53672;48.176;16.338;2023-02-23T23:42:31;98657.41;;;8.93;72.41
66762;BME280;53672;48.176;16.338;2023-02-23T23:47:32;98648.22;;;8.99;72.21
66762;BME280;53672;48.176;16.338;2023-02-23T23:52:32;98636.16;;;8.97;72.70
66762;BME280;53672;48.176;16.338;2023-02-23T23:57:34;98628.63;;;8.94;73.17
